Time;durP1;ratioP1;P1;durP2;ratioP2;P2;SDS_P1;SDS_P2;PMS_P1;PMS_P2;Temp;Humidity;BMP_temperature;BMP_pressure;BME280_temperature;BME280_humidity;BME280_pressure;Samples;Min_cycle;Max_cycle;Signal;HPM_P1;HPM_P2
2022/08/03 00:01:42;;;;;;;;;;;;;;;18.78;84.56;100502.61;1447274;90;20308;-86
2022/08/03 00:04:09;;;;;;;;;;;;;;;18.77;85.36;100508.19;1444598;90;20271;-86
2022/08/03 00:06:35;;;;;;;;;;;;;;;18.74;84.26;100508.06;1415100;91;20386;-86
2022/08/03 00:09:01;;;;;;;;;;;;;;;18.72;86.06;100504.72;1444631;91;20293;-86
2022/08/03 00:11:27;;;;;;;;;;;;;;;18.69;86.24;100500.58;1446720;90;20301;-87
2022/08/03 00:13:53;;;;;;;;;;;;;;;18.72;86.15;100499.36;1446090;91;20235;-86
2022/08/03 00:16:19;;;;;;;;;;;;;;;18.74;86.55;100496.00;1445617;91;20265;-86
2022/08/03 00:18:45;;;;;;;;;;;;;;;18.76;86.09;100497.98;1436493;90;20279;-86
2022/08/03 00:21:11;;;;;;;;;;;;;;;18.80;86.25;100496.54;1440911;90;20307;-86
2022/08/03 00:23:37;;;;;;;;;;;;;;;18.83;85.69;100496.66;1443004;91;20278;-86
2022/08/03 00:26:03;;;;;;;;;;;;;;;18.84;85.72;100496.44;1442658;90;20309;-86
2022/08/03 00:28:28;;;;;;;;;;;;;;;18.87;85.80;100501.92;1441567;91;20286;-86
2022/08/03 00:30:54;;;;;;;;;;;;;;;18.87;86.10;100501.92;1438511;90;20291;-86
2022/08/03 00:33:21;;;;;;;;;;;;;;;18.86;85.34;100500.28;1443171;90;20352;-86
2022/08/03 00:35:47;;;;;;;;;;;;;;;18.84;85.98;100500.47;1437101;91;20398;-86
2022/08/03 00:38:13;;;;;;;;;;;;;;;18.82;85.30;100499.86;1439717;90;20353;-86
2022/08/03 00:40:39;;;;;;;;;;;;;;;18.79;84.75;100498.06;1439405;90;20800;-86
2022/08/03 00:43:07;;;;;;;;;;;;;;;18.76;84.53;100502.00;1441204;90;20271;-86
2022/08/03 00:45:35;;;;;;;;;;;;;;;18.73;84.70;100501.03;1439881;90;20353;-86
2022/08/03 00:48:02;;;;;;;;;;;;;;;18.69;85.48;100498.41;1445576;91;20316;-86
2022/08/03 00:50:29;;;;;;;;;;;;;;;18.62;85.27;100502.41;1444609;90;20345;-86
2022/08/03 00:52:57;;;;;;;;;;;;;;;18.56;84.63;100509.91;1437345;90;20308;-86
2022/08/03 00:55:23;;;;;;;;;;;;;;;18.49;86.61;100507.17;1442194;91;20415;-86
2022/08/03 00:57:50;;;;;;;;;;;;;;;18.40;87.19;100504.34;1449494;90;21297;-86
2022/08/03 01:00:19;;;;;;;;;;;;;;;18.35;87.01;100507.30;1444293;90;20308;-86
2022/08/03 01:02:45;;;;;;;;;;;;;;;18.30;87.09;100512.41;1441548;90;20478;-86
2022/08/03 01:05:12;;;;;;;;;;;;;;;18.26;86.42;100511.45;1440707;90;20278;-86
2022/08/03 01:07:57;;;;;;;;;;;;;;;18.23;88.28;100516.39;1441900;91;20360;-86
2022/08/03 01:10:38;;;;;;;;;;;;;;;18.17;87.85;100509.14;1436260;91;20390;-86
2022/08/03 01:13:22;;;;;;;;;;;;;;;18.14;89.90;100513.55;1434973;90;20821;-86
2022/08/03 01:16:10;;;;;;;;;;;;;;;18.12;87.79;100509.70;1440603;90;20292;-86
2022/08/03 01:18:55;;;;;;;;;;;;;;;18.13;88.70;100511.38;1433125;90;20264;-86
2022/08/03 01:21:34;;;;;;;;;;;;;;;18.13;88.68;100514.58;1382823;93;20817;-87
2022/08/03 01:24:18;;;;;;;;;;;;;;;18.14;87.84;100516.23;1442981;90;20331;-87
2022/08/03 01:26:54;;;;;;;;;;;;;;;18.15;87.84;100509.83;1441803;91;20401;-87
2022/08/03 01:29:59;;;;;;;;;;;;;;;18.17;87.18;100511.81;1437274;90;20300;-87
2022/08/03 01:32:29;;;;;;;;;;;;;;;18.21;87.62;100511.73;1437303;91;20271;-87
2022/08/03 01:35:01;;;;;;;;;;;;;;;18.22;88.00;100513.41;1407669;92;20305;-86
2022/08/03 01:37:34;;;;;;;;;;;;;;;18.24;87.64;100504.64;1444413;90;20279;-87
2022/08/03 01:40:02;;;;;;;;;;;;;;;18.24;87.72;100501.95;1432787;91;20414;-87
2022/08/03 01:42:29;;;;;;;;;;;;;;;18.25;87.43;100507.14;1446224;91;20361;-87
2022/08/03 01:44:56;;;;;;;;;;;;;;;18.27;87.91;100509.63;1443553;91;20867;-88
2022/08/03 01:47:23;;;;;;;;;;;;;;;18.23;88.33;100505.67;1442865;91;20316;-86
2022/08/03 01:49:51;;;;;;;;;;;;;;;18.17;88.51;100505.94;1440821;90;20346;-86
2022/08/03 01:52:19;;;;;;;;;;;;;;;18.10;89.84;100499.73;1441090;90;20308;-87
2022/08/03 01:54:47;;;;;;;;;;;;;;;18.04;91.31;100502.67;1442170;91;20329;-86
2022/08/03 01:57:14;;;;;;;;;;;;;;;17.99;91.68;100503.76;1442237;90;20423;-87
2022/08/03 01:59:41;;;;;;;;;;;;;;;17.96;90.41;100494.77;1437525;91;20280;-87
2022/08/03 02:02:07;;;;;;;;;;;;;;;17.97;91.44;100496.94;1438022;91;20264;-87
2022/08/03 02:04:34;;;;;;;;;;;;;;;17.95;92.65;100501.16;1439234;91;20784;-87
2022/08/03 02:07:00;;;;;;;;;;;;;;;17.90;93.04;100498.23;1440078;90;20431;-87
2022/08/03 02:09:27;;;;;;;;;;;;;;;17.85;90.72;100492.62;1438682;90;20368;-87
2022/08/03 02:11:54;;;;;;;;;;;;;;;17.82;91.75;100501.05;1442957;91;20536;-87
2022/08/03 02:14:21;;;;;;;;;;;;;;;17.75;92.89;100494.27;1440253;90;20330;-86
2022/08/03 02:16:48;;;;;;;;;;;;;;;17.70;91.42;100496.70;1438743;90;21043;-87
2022/08/03 02:19:15;;;;;;;;;;;;;;;17.64;92.62;100496.12;1431853;90;20316;-87
2022/08/03 02:21:42;;;;;;;;;;;;;;;17.63;91.65;100498.47;1437575;91;20375;-87
2022/08/03 02:24:08;;;;;;;;;;;;;;;17.61;93.85;100485.81;1438736;91;21557;-87
2022/08/03 02:26:36;;;;;;;;;;;;;;;17.59;92.70;100489.18;1437866;90;20294;-86
2022/08/03 02:29:04;;;;;;;;;;;;;;;17.60;92.69;100486.30;1436468;91;20309;-87
2022/08/03 02:31:33;;;;;;;;;;;;;;;17.63;92.89;100482.92;1439281;90;20280;-87
2022/08/03 02:34:02;;;;;;;;;;;;;;;17.65;93.45;100490.26;1433000;90;20273;-87
2022/08/03 02:36:30;;;;;;;;;;;;;;;17.65;93.09;100488.92;1437644;90;20249;-87
2022/08/03 02:38:58;;;;;;;;;;;;;;;17.69;91.65;100490.18;1436251;90;20257;-87
2022/08/03 02:41:31;;;;;;;;;;;;;;;17.71;93.93;100495.66;1442434;90;20353;-87
2022/08/03 02:43:58;;;;;;;;;;;;;;;17.70;93.08;100492.68;1436461;91;20369;-87
2022/08/03 02:46:28;;;;;;;;;;;;;;;17.71;93.29;100492.16;1447316;91;20308;-86
2022/08/03 02:48:55;;;;;;;;;;;;;;;17.72;95.20;100501.84;1441864;90;20397;-87
2022/08/03 02:51:21;;;;;;;;;;;;;;;17.69;95.66;100503.05;1448432;90;20315;-86
2022/08/03 02:53:48;;;;;;;;;;;;;;;17.71;96.14;100498.34;1439515;90;20353;-87
2022/08/03 02:56:14;;;;;;;;;;;;;;;17.73;95.00;100496.83;1442556;91;20793;-87
2022/08/03 02:58:43;;;;;;;;;;;;;;;17.74;93.26;100498.47;1443081;90;20556;-87
2022/08/03 03:01:09;;;;;;;;;;;;;;;17.72;92.52;100498.67;1442091;90;20308;-87
2022/08/03 03:03:36;;;;;;;;;;;;;;;17.69;96.11;100501.70;1442598;91;20309;-87
2022/08/03 03:06:03;;;;;;;;;;;;;;;17.67;95.71;100503.77;1442496;90;20910;-86
2022/08/03 03:08:30;;;;;;;;;;;;;;;17.63;96.43;100505.67;1439415;90;20330;-87
2022/08/03 03:10:58;;;;;;;;;;;;;;;17.60;97.67;100503.69;1444067;91;21079;-87
2022/08/03 03:13:24;;;;;;;;;;;;;;;17.59;97.39;100502.05;1442833;90;20324;-87
2022/08/03 03:15:51;;;;;;;;;;;;;;;17.60;96.93;100501.53;1436794;90;20307;-86
2022/08/03 03:18:17;;;;;;;;;;;;;;;17.58;96.97;100501.73;1439389;90;20294;-87
2022/08/03 03:20:44;;;;;;;;;;;;;;;17.57;97.92;100503.25;1442205;91;20415;-87
2022/08/03 03:23:10;;;;;;;;;;;;;;;17.54;97.36;100503.12;1443918;90;20331;-86
2022/08/03 03:25:37;;;;;;;;;;;;;;;17.49;96.26;100502.89;1445020;90;20301;-87
2022/08/03 03:28:03;;;;;;;;;;;;;;;17.46;96.59;100502.42;1436698;90;20331;-87
2022/08/03 03:30:29;;;;;;;;;;;;;;;17.43;98.40;100509.48;1442744;90;20412;-87
2022/08/03 03:32:57;;;;;;;;;;;;;;;17.39;98.12;100509.05;1443279;90;20653;-87
2022/08/03 03:35:23;;;;;;;;;;;;;;;17.39;98.23;100513.58;1445660;90;20316;-87
2022/08/03 03:37:49;;;;;;;;;;;;;;;17.40;98.49;100509.36;1437213;91;20814;-86
2022/08/03 03:40:15;;;;;;;;;;;;;;;17.44;99.68;100506.64;1443880;91;20353;-87
2022/08/03 03:42:41;;;;;;;;;;;;;;;17.50;99.14;100519.25;1435051;91;20361;-86
2022/08/03 03:45:07;;;;;;;;;;;;;;;17.53;98.83;100514.85;1441238;91;20316;-87
2022/08/03 03:47:34;;;;;;;;;;;;;;;17.56;99.35;100514.47;1447766;91;20279;-87
2022/08/03 03:50:05;;;;;;;;;;;;;;;17.58;99.44;100516.45;1443613;91;20521;-86
2022/08/03 03:52:32;;;;;;;;;;;;;;;17.62;100.00;100512.05;1441080;91;20427;-86
2022/08/03 03:54:58;;;;;;;;;;;;;;;17.65;100.00;100517.02;1445095;91;21438;-86
2022/08/03 03:57:24;;;;;;;;;;;;;;;17.70;100.00;100523.97;1440654;91;20353;-87
2022/08/03 03:59:49;;;;;;;;;;;;;;;17.77;100.00;100528.34;1438838;91;20962;-86
2022/08/03 04:02:15;;;;;;;;;;;;;;;17.85;100.00;100519.39;1440379;91;20286;-87
2022/08/03 04:13:08;;;;;;;;;;;;;;;18.03;98.41;100531.79;1437054;90;20293;-86
2022/08/03 04:15:36;;;;;;;;;;;;;;;18.04;97.67;100533.47;1445812;90;20510;-86
2022/08/03 04:18:03;;;;;;;;;;;;;;;18.12;97.00;100537.01;1446772;90;20464;-86
2022/08/03 04:20:31;;;;;;;;;;;;;;;18.15;97.13;100532.60;1436437;90;20270;-86
2022/08/03 04:23:01;;;;;;;;;;;;;;;18.15;96.50;100538.78;1437601;90;20934;-86
2022/08/03 04:25:31;;;;;;;;;;;;;;;18.16;96.46;100540.45;1447715;91;20316;-87
2022/08/03 04:27:58;;;;;;;;;;;;;;;18.16;97.19;100542.31;1439322;90;20441;-87
2022/08/03 04:30:29;;;;;;;;;;;;;;;18.16;97.16;100542.31;1437211;90;20390;-87
2022/08/03 04:32:56;;;;;;;;;;;;;;;18.20;97.36;100546.25;1435539;90;20896;-86
2022/08/03 04:35:23;;;;;;;;;;;;;;;18.28;96.82;100547.96;1440430;91;20293;-87
2022/08/03 04:37:51;;;;;;;;;;;;;;;18.33;97.06;100545.53;1446454;91;20220;-87
2022/08/03 04:40:24;;;;;;;;;;;;;;;18.40;96.22;100541.85;1449036;91;20285;-86
2022/08/03 04:42:51;;;;;;;;;;;;;;;18.51;95.97;100545.02;1431380;90;20956;-87
2022/08/03 04:45:18;;;;;;;;;;;;;;;18.62;96.19;100549.84;1444616;90;20430;-87
2022/08/03 04:47:44;;;;;;;;;;;;;;;18.69;95.94;100553.37;1440274;90;20346;-87
2022/08/03 04:50:10;;;;;;;;;;;;;;;18.76;95.55;100556.96;1441584;91;21621;-86
2022/08/03 04:52:36;;;;;;;;;;;;;;;18.72;95.20;100549.77;1434133;91;20316;-87
2022/08/03 04:55:04;;;;;;;;;;;;;;;18.73;94.54;100549.28;1444859;91;20279;-87
2022/08/03 04:57:30;;;;;;;;;;;;;;;18.76;94.47;100562.33;1441083;90;20427;-86
2022/08/03 04:59:56;;;;;;;;;;;;;;;18.78;94.40;100564.79;1436798;90;20263;-86
2022/08/03 05:02:23;;;;;;;;;;;;;;;18.80;94.37;100567.59;1435861;90;20272;-86
2022/08/03 05:04:49;;;;;;;;;;;;;;;18.85;94.30;100562.47;1443698;91;20785;-86
2022/08/03 05:07:16;;;;;;;;;;;;;;;18.93;93.62;100573.03;1442436;90;20221;-87
2022/08/03 05:09:42;;;;;;;;;;;;;;;19.03;93.56;100574.52;1440546;91;20236;-86
2022/08/03 05:12:08;;;;;;;;;;;;;;;19.06;93.86;100576.28;1421888;91;20287;-86
2022/08/03 05:14:36;;;;;;;;;;;;;;;19.10;93.54;100582.92;1447902;90;20390;-87
2022/08/03 05:17:06;;;;;;;;;;;;;;;19.12;93.11;100585.38;1441023;90;20287;-87
2022/08/03 05:19:32;;;;;;;;;;;;;;;19.16;92.69;100583.95;1442872;90;20337;-85
2022/08/03 05:21:58;;;;;;;;;;;;;;;19.21;92.62;100578.81;1440854;91;20262;-86
2022/08/03 05:24:24;;;;;;;;;;;;;;;19.29;92.32;100586.70;1436044;90;20342;-87
2022/08/03 05:26:50;;;;;;;;;;;;;;;19.30;91.77;100588.34;1439301;91;20242;-86
2022/08/03 05:29:16;;;;;;;;;;;;;;;19.42;91.29;100595.81;1444029;90;20865;-86
2022/08/03 05:31:42;;;;;;;;;;;;;;;19.49;90.96;100595.33;1446474;90;20242;-86
2022/08/03 05:34:08;;;;;;;;;;;;;;;19.61;90.47;100593.19;1442596;91;20301;-86
2022/08/03 05:36:34;;;;;;;;;;;;;;;19.76;90.20;100586.84;1442252;91;20228;-87
2022/08/03 05:38:59;;;;;;;;;;;;;;;19.91;89.96;100594.22;1439431;90;20376;-86
2022/08/03 05:41:25;;;;;;;;;;;;;;;20.02;87.96;100594.11;1444486;91;20228;-86
2022/08/03 05:43:52;;;;;;;;;;;;;;;20.14;87.57;100601.03;1437070;90;20301;-86
2022/08/03 05:46:19;;;;;;;;;;;;;;;20.23;87.14;100601.98;1447803;91;20301;-86
2022/08/03 05:48:45;;;;;;;;;;;;;;;20.41;87.66;100598.66;1439742;90;20309;-87
2022/08/03 05:51:12;;;;;;;;;;;;;;;20.54;84.86;100598.36;1435878;91;20293;-86
2022/08/03 05:53:42;;;;;;;;;;;;;;;20.69;84.78;100597.11;1443253;90;20293;-86
2022/08/03 05:56:08;;;;;;;;;;;;;;;20.85;83.38;100603.07;1441758;90;20263;-87
2022/08/03 05:58:35;;;;;;;;;;;;;;;21.02;82.73;100602.92;1445659;90;20227;-87
2022/08/03 06:01:01;;;;;;;;;;;;;;;21.22;82.66;100603.37;1436566;91;20309;-86
2022/08/03 06:03:26;;;;;;;;;;;;;;;21.38;81.79;100605.09;1437630;91;20782;-86
2022/08/03 06:05:55;;;;;;;;;;;;;;;21.50;76.40;100609.80;1439479;91;20279;-86
2022/08/03 06:08:22;;;;;;;;;;;;;;;21.61;76.91;100615.33;1442419;91;20330;-87
2022/08/03 06:10:49;;;;;;;;;;;;;;;21.74;75.92;100609.55;1443550;90;20301;-86
2022/08/03 06:13:15;;;;;;;;;;;;;;;21.90;75.67;100618.48;1439457;90;20323;-91
2022/08/03 06:15:41;;;;;;;;;;;;;;;22.07;76.27;100612.86;1449746;91;20301;-86
2022/08/03 06:18:07;;;;;;;;;;;;;;;22.08;71.62;100615.03;1440240;91;20301;-86
2022/08/03 06:20:33;;;;;;;;;;;;;;;22.14;72.17;100612.80;1438700;90;20370;-87
2022/08/03 06:22:59;;;;;;;;;;;;;;;22.21;70.10;100614.12;1440317;91;20404;-86
2022/08/03 06:25:25;;;;;;;;;;;;;;;22.30;71.39;100621.73;1442272;90;20265;-86
2022/08/03 06:27:51;;;;;;;;;;;;;;;22.42;70.03;100618.32;1445525;91;20889;-86
2022/08/03 06:30:17;;;;;;;;;;;;;;;22.49;69.04;100624.47;1440907;91;20376;-87
2022/08/03 06:32:44;;;;;;;;;;;;;;;22.61;68.82;100616.47;1433716;91;20956;-86
2022/08/03 06:35:10;;;;;;;;;;;;;;;22.64;69.16;100613.32;1440665;91;20401;-86
2022/08/03 06:37:47;;;;;;;;;;;;;;;22.83;68.83;100610.95;1443625;90;20293;-86
2022/08/03 06:40:14;;;;;;;;;;;;;;;22.90;68.00;100610.37;1444649;90;20242;-87
2022/08/03 06:42:41;;;;;;;;;;;;;;;23.13;70.28;100618.33;1438342;90;20428;-86
2022/08/03 06:45:10;;;;;;;;;;;;;;;23.16;64.90;100617.88;1438784;90;20346;-87
2022/08/03 06:47:37;;;;;;;;;;;;;;;23.29;65.05;100608.27;1439511;90;20756;-86
2022/08/03 06:50:08;;;;;;;;;;;;;;;23.39;63.47;100613.97;1445310;91;20301;-87
2022/08/03 06:52:34;;;;;;;;;;;;;;;23.55;64.79;100613.03;1441255;91;20896;-87
2022/08/03 06:54:59;;;;;;;;;;;;;;;23.65;62.96;100612.79;1438508;91;20286;-87
2022/08/03 06:57:25;;;;;;;;;;;;;;;23.81;64.87;100616.73;1434717;91;20220;-87
2022/08/03 06:59:51;;;;;;;;;;;;;;;23.99;66.09;100617.72;1450409;91;20824;-87
2022/08/03 07:02:18;;;;;;;;;;;;;;;24.14;63.82;100620.83;1439721;90;20307;-87
2022/08/03 07:04:44;;;;;;;;;;;;;;;24.16;60.24;100608.41;1444506;90;20379;-87
2022/08/03 07:07:10;;;;;;;;;;;;;;;24.19;60.90;100610.64;1433664;91;20271;-87
2022/08/03 07:09:36;;;;;;;;;;;;;;;24.33;61.38;100615.59;1442045;91;20279;-87
2022/08/03 07:12:03;;;;;;;;;;;;;;;24.45;60.91;100617.52;1437523;90;20434;-87
2022/08/03 07:14:29;;;;;;;;;;;;;;;24.52;59.76;100619.59;1441421;90;20741;-87
2022/08/03 07:16:55;;;;;;;;;;;;;;;24.63;58.69;100612.52;1437941;90;20306;-87
2022/08/03 07:19:21;;;;;;;;;;;;;;;24.79;60.37;100605.58;1442160;91;20453;-87
2022/08/03 07:21:47;;;;;;;;;;;;;;;24.92;59.63;100610.75;1444693;90;20316;-87
2022/08/03 07:24:13;;;;;;;;;;;;;;;24.99;58.58;100608.72;1447896;90;20300;-87
2022/08/03 07:26:39;;;;;;;;;;;;;;;25.13;59.37;100609.28;1446342;90;20293;-87
2022/08/03 07:29:05;;;;;;;;;;;;;;;25.28;59.29;100600.67;1448991;90;20346;-87
2022/08/03 07:31:30;;;;;;;;;;;;;;;25.27;56.94;100609.33;1444741;89;20843;-87
2022/08/03 07:33:56;;;;;;;;;;;;;;;25.30;55.45;100608.03;1448457;89;20323;-86
2022/08/03 07:36:23;;;;;;;;;;;;;;;25.34;54.05;100601.06;1440392;89;20286;-87
2022/08/03 07:38:49;;;;;;;;;;;;;;;25.41;55.43;100603.11;1442150;90;20505;-87
2022/08/03 07:41:15;;;;;;;;;;;;;;;25.39;54.93;100602.52;1440263;89;20301;-87
2022/08/03 07:43:41;;;;;;;;;;;;;;;25.50;53.99;100596.23;1444945;89;20242;-86
2022/08/03 07:46:07;;;;;;;;;;;;;;;25.49;53.71;100604.08;1449721;89;20308;-87
2022/08/03 07:48:33;;;;;;;;;;;;;;;25.63;53.94;100604.05;1447437;90;20330;-87
2022/08/03 07:50:59;;;;;;;;;;;;;;;25.83;54.59;100606.34;1447280;90;20286;-86
2022/08/03 07:53:25;;;;;;;;;;;;;;;26.00;55.38;100603.64;1447998;90;20293;-87
2022/08/03 07:55:50;;;;;;;;;;;;;;;26.18;54.55;100605.83;1447862;90;20345;-87
2022/08/03 07:58:16;;;;;;;;;;;;;;;26.27;53.68;100605.19;1442787;90;20309;-86
2022/08/03 08:00:43;;;;;;;;;;;;;;;26.34;53.75;100600.41;1441847;90;20412;-86
2022/08/03 08:03:10;;;;;;;;;;;;;;;26.42;53.82;100600.53;1446184;89;20428;-86
2022/08/03 08:05:36;;;;;;;;;;;;;;;26.57;53.06;100601.31;1447533;90;20383;-87
2022/08/03 08:08:02;;;;;;;;;;;;;;;26.67;50.72;100606.05;1443818;90;21021;-87
2022/08/03 08:10:29;;;;;;;;;;;;;;;26.65;50.37;100610.39;1444042;90;20382;-87
2022/08/03 08:12:55;;;;;;;;;;;;;;;26.70;49.70;100601.48;1448563;89;20286;-86
2022/08/03 08:15:21;;;;;;;;;;;;;;;26.83;49.43;100608.46;1437446;89;20419;-86
2022/08/03 08:17:51;;;;;;;;;;;;;;;26.73;48.13;100603.72;1442203;89;20353;-87
2022/08/03 08:20:20;;;;;;;;;;;;;;;26.88;49.40;100609.35;1447367;89;20316;-86
2022/08/03 08:22:46;;;;;;;;;;;;;;;26.99;49.11;100601.62;1444678;90;20258;-86
2022/08/03 08:25:12;;;;;;;;;;;;;;;27.07;48.12;100606.31;1456705;89;20290;-87
2022/08/03 08:27:47;;;;;;;;;;;;;;;27.10;47.63;100603.09;1451720;90;20300;-87
2022/08/03 08:30:15;;;;;;;;;;;;;;;27.23;48.41;100602.75;1458351;90;20256;-87
2022/08/03 08:32:41;;;;;;;;;;;;;;;27.43;49.41;100602.98;1458352;90;20382;-86
2022/08/03 08:35:08;;;;;;;;;;;;;;;27.43;45.70;100605.70;1456022;90;20286;-87
2022/08/03 08:37:35;;;;;;;;;;;;;;;27.53;46.43;100602.25;1451370;90;20286;-87
2022/08/03 08:40:01;;;;;;;;;;;;;;;27.63;46.05;100600.20;1453503;90;20323;-87
2022/08/03 08:42:27;;;;;;;;;;;;;;;27.64;46.39;100601.28;1456490;90;20725;-87
2022/08/03 08:44:53;;;;;;;;;;;;;;;27.67;45.33;100597.23;1445279;90;20374;-87
2022/08/03 08:47:21;;;;;;;;;;;;;;;27.82;46.07;100601.51;1457353;90;20869;-87
2022/08/03 08:49:49;;;;;;;;;;;;;;;27.93;45.18;100598.32;1454930;90;20375;-87
2022/08/03 08:52:15;;;;;;;;;;;;;;;28.11;42.60;100601.21;1458688;90;20271;-87
2022/08/03 08:54:43;;;;;;;;;;;;;;;28.26;43.16;100602.68;1461326;90;20263;-87
2022/08/03 08:57:10;;;;;;;;;;;;;;;28.35;40.89;100598.39;1452070;90;20300;-87
2022/08/03 08:59:36;;;;;;;;;;;;;;;28.52;44.16;100594.72;1459016;90;20840;-87
2022/08/03 09:02:02;;;;;;;;;;;;;;;28.59;42.45;100595.30;1457905;90;20279;-87
2022/08/03 09:04:29;;;;;;;;;;;;;;;28.74;42.92;100597.28;1452264;90;20308;-87
2022/08/03 09:06:55;;;;;;;;;;;;;;;28.85;42.21;100587.27;1453847;90;20309;-87
2022/08/03 09:09:21;;;;;;;;;;;;;;;28.99;42.19;100587.88;1457109;90;20322;-86
2022/08/03 09:11:48;;;;;;;;;;;;;;;29.18;43.50;100588.25;1459501;90;20338;-87
2022/08/03 09:14:15;;;;;;;;;;;;;;;29.20;40.64;100590.70;1446241;90;20754;-87
2022/08/03 09:17:04;;;;;;;;;;;;;;;29.31;40.94;100591.55;1455103;90;20498;-87
2022/08/03 09:19:31;;;;;;;;;;;;;;;29.33;39.27;100591.56;1455489;90;20754;-87
2022/08/03 09:22:11;;;;;;;;;;;;;;;29.39;40.30;100591.03;1449820;88;20308;-87
2022/08/03 09:24:39;;;;;;;;;;;;;;;29.52;42.23;100586.45;1453119;90;20344;-88
2022/08/03 09:27:08;;;;;;;;;;;;;;;29.73;42.37;100589.23;1455478;90;20419;-88
2022/08/03 09:29:34;;;;;;;;;;;;;;;29.79;38.58;100588.14;1456129;90;20891;-88
2022/08/03 09:32:03;;;;;;;;;;;;;;;29.88;39.35;100583.77;1454557;89;20286;-88
2022/08/03 09:34:29;;;;;;;;;;;;;;;29.86;38.81;100588.67;1453483;90;20840;-87
2022/08/03 09:36:57;;;;;;;;;;;;;;;29.75;37.08;100581.57;1452212;90;20242;-88
2022/08/03 09:39:26;;;;;;;;;;;;;;;29.84;39.16;100581.33;1448715;90;20242;-88
2022/08/03 09:42:21;;;;;;;;;;;;;;;29.97;40.58;100583.49;1459759;90;20366;-88
2022/08/03 09:44:48;;;;;;;;;;;;;;;30.16;40.07;100585.13;1454055;90;20353;-88
2022/08/03 09:47:17;;;;;;;;;;;;;;;30.03;36.57;100572.84;1453194;90;20234;-88
2022/08/03 09:49:46;;;;;;;;;;;;;;;30.14;38.50;100567.66;1449745;90;20383;-88
2022/08/03 09:52:18;;;;;;;;;;;;;;;30.02;38.07;100571.22;1447575;88;20434;-87
2022/08/03 09:54:46;;;;;;;;;;;;;;;30.20;39.43;100569.02;1453417;90;20397;-87
2022/08/03 09:57:24;;;;;;;;;;;;;;;30.41;38.53;100570.64;1457354;90;20397;-87
2022/08/03 09:59:51;;;;;;;;;;;;;;;30.45;36.79;100569.01;1457794;90;20464;-88
2022/08/03 10:02:23;;;;;;;;;;;;;;;30.68;38.39;100566.77;1458101;90;20299;-87
2022/08/03 10:04:51;;;;;;;;;;;;;;;30.62;35.78;100566.52;1457018;90;20308;-87
2022/08/03 10:07:22;;;;;;;;;;;;;;;30.59;34.02;100561.06;1451012;90;20234;-87
2022/08/03 10:10:00;;;;;;;;;;;;;;;30.54;34.62;100561.06;1451676;90;20277;-87
2022/08/03 10:12:27;;;;;;;;;;;;;;;30.58;36.81;100558.87;1437245;90;20277;-87
2022/08/03 10:14:54;;;;;;;;;;;;;;;30.59;36.28;100561.06;1461907;90;20278;-87
2022/08/03 10:17:21;;;;;;;;;;;;;;;30.64;36.96;100556.11;1458724;90;20338;-87
2022/08/03 10:19:48;;;;;;;;;;;;;;;30.74;35.82;100556.09;1454536;90;20307;-87
2022/08/03 10:22:28;;;;;;;;;;;;;;;30.66;34.22;100552.56;1455456;90;20338;-87
2022/08/03 10:25:07;;;;;;;;;;;;;;;30.32;33.67;100550.46;1439016;90;21636;-87
2022/08/03 10:27:38;;;;;;;;;;;;;;;30.29;34.48;100553.74;1445424;91;20309;-88
2022/08/03 10:30:07;;;;;;;;;;;;;;;30.04;35.02;100549.13;1438699;91;20890;-88
2022/08/03 10:32:42;;;;;;;;;;;;;;;30.30;36.43;100552.67;1442901;90;20815;-88
2022/08/03 10:35:12;;;;;;;;;;;;;;;30.54;34.85;100549.59;1439045;90;20272;-88
2022/08/03 10:37:44;;;;;;;;;;;;;;;30.81;36.35;100556.63;1449599;91;20301;-88
2022/08/03 10:40:19;;;;;;;;;;;;;;;30.83;33.74;100543.51;1436741;91;21077;-88
2022/08/03 10:42:45;;;;;;;;;;;;;;;30.93;35.18;100544.84;1435574;90;20393;-88
2022/08/03 10:45:22;;;;;;;;;;;;;;;30.93;33.30;100539.90;1443474;90;20888;-88
2022/08/03 10:47:49;;;;;;;;;;;;;;;30.71;33.35;100545.17;1441937;90;20308;-88
2022/08/03 10:50:15;;;;;;;;;;;;;;;30.30;34.95;100539.02;1439537;90;20390;-88
2022/08/03 10:52:58;;;;;;;;;;;;;;;30.43;35.07;100538.98;1440218;90;20488;-87
2022/08/03 10:58:38;;;;;;;;;;;;;;;30.59;33.45;100536.48;1438532;90;20405;-88
2022/08/03 11:01:09;;;;;;;;;;;;;;;30.94;35.33;100531.44;1412469;92;20353;-88
2022/08/03 11:03:55;;;;;;;;;;;;;;;30.95;32.16;100528.15;1415026;92;20402;-88
2022/08/03 11:06:24;;;;;;;;;;;;;;;31.00;33.58;100531.67;1406081;93;21027;-88
2022/08/03 11:09:12;;;;;;;;;;;;;;;31.07;32.41;100520.42;1402676;92;20776;-88
2022/08/03 11:11:42;;;;;;;;;;;;;;;31.15;32.01;100517.10;1406732;93;20283;-87
2022/08/03 11:14:15;;;;;;;;;;;;;;;30.99;31.34;100515.58;1404258;92;20387;-88
2022/08/03 11:16:44;;;;;;;;;;;;;;;30.98;32.79;100518.83;1405577;92;20320;-88
2022/08/03 11:19:13;;;;;;;;;;;;;;;31.12;32.71;100510.02;1407276;92;20312;-88
2022/08/03 11:21:52;;;;;;;;;;;;;;;31.22;32.20;100514.08;1407755;92;20313;-88
2022/08/03 11:24:45;;;;;;;;;;;;;;;31.25;32.50;100508.84;1438755;90;20347;-87
2022/08/03 11:27:19;;;;;;;;;;;;;;;31.35;30.95;100505.25;1433420;91;20362;-88
2022/08/03 11:30:04;;;;;;;;;;;;;;;31.69;33.21;100510.73;1432771;91;20243;-87
2022/08/03 11:32:46;;;;;;;;;;;;;;;31.73;31.24;100504.13;1434161;91;20444;-88
2022/08/03 11:35:17;;;;;;;;;;;;;;;31.86;30.97;100508.94;1397603;94;20465;-88
2022/08/03 11:37:55;;;;;;;;;;;;;;;31.84;30.72;100512.50;1400240;94;20412;-88
2022/08/03 11:40:43;;;;;;;;;;;;;;;31.86;30.69;100502.66;1398515;94;20797;-88
2022/08/03 11:43:25;;;;;;;;;;;;;;;31.96;32.26;100506.68;1398608;94;20310;-88
2022/08/03 11:46:06;;;;;;;;;;;;;;;32.29;32.11;100500.88;1394236;94;20404;-88
2022/08/03 11:48:37;;;;;;;;;;;;;;;32.24;28.33;100494.08;1401344;94;20329;-87
2022/08/03 11:51:05;;;;;;;;;;;;;;;32.31;29.14;100494.56;1400462;94;20453;-88
2022/08/03 11:53:31;;;;;;;;;;;;;;;32.41;30.58;100487.33;1400295;94;20410;-88
2022/08/03 11:56:01;;;;;;;;;;;;;;;32.39;29.46;100484.05;1406006;94;20315;-88
2022/08/03 11:58:28;;;;;;;;;;;;;;;32.21;28.52;100485.08;1403981;94;20454;-88
2022/08/03 12:01:07;;;;;;;;;;;;;;;32.19;30.26;100479.62;1401338;92;20423;-88
2022/08/03 12:03:34;;;;;;;;;;;;;;;32.17;29.94;100482.67;1442770;90;20889;-88
2022/08/03 12:06:03;;;;;;;;;;;;;;;32.34;30.71;100484.39;1445157;89;20322;-87
2022/08/03 12:08:31;;;;;;;;;;;;;;;32.32;28.92;100481.12;1451020;90;21071;-88
2022/08/03 12:10:59;;;;;;;;;;;;;;;32.41;30.42;100479.11;1447547;89;21594;-87
2022/08/03 12:13:25;;;;;;;;;;;;;;;32.51;28.51;100476.26;1448990;89;20895;-88
2022/08/03 12:15:53;;;;;;;;;;;;;;;32.44;28.47;100477.97;1456360;89;20293;-87
2022/08/03 12:18:20;;;;;;;;;;;;;;;32.26;27.76;100469.16;1445269;90;20315;-88
2022/08/03 12:20:48;;;;;;;;;;;;;;;32.49;30.14;100473.02;1454146;90;20285;-88
2022/08/03 12:23:15;;;;;;;;;;;;;;;32.61;30.25;100470.66;1446904;90;20338;-88
2022/08/03 12:25:42;;;;;;;;;;;;;;;32.55;28.02;100466.36;1446745;91;20308;-88
2022/08/03 12:28:22;;;;;;;;;;;;;;;32.58;28.43;100460.30;1427387;91;20800;-88
2022/08/03 12:30:47;;;;;;;;;;;;;;;32.43;29.05;100463.20;1443120;90;20332;-88
2022/08/03 12:33:25;;;;;;;;;;;;;;;32.31;28.10;100461.70;1434784;89;20412;-88
2022/08/03 12:36:03;;;;;;;;;;;;;;;32.20;28.25;100460.19;1448045;91;20278;-88
2022/08/03 12:38:31;;;;;;;;;;;;;;;32.14;29.59;100455.88;1443892;89;20294;-87
2022/08/03 12:40:59;;;;;;;;;;;;;;;32.08;29.26;100454.27;1441654;91;20271;-87
2022/08/03 12:43:25;;;;;;;;;;;;;;;32.16;28.65;100456.38;1438910;91;20315;-87
2022/08/03 12:45:53;;;;;;;;;;;;;;;32.34;27.38;100454.27;1432653;91;20807;-87
2022/08/03 12:48:19;;;;;;;;;;;;;;;32.42;28.37;100450.60;1443188;90;20346;-87
2022/08/03 12:50:45;;;;;;;;;;;;;;;32.63;28.92;100448.44;1441900;90;20294;-87
2022/08/03 12:53:11;;;;;;;;;;;;;;;32.50;28.74;100449.98;1442226;91;20308;-88
2022/08/03 12:55:38;;;;;;;;;;;;;;;32.70;29.14;100445.61;1434422;89;20301;-88